sensor_id;sensor_type;location;lat;lon;timestamp;pressure;altitude;pressure_sealevel;temperature;humidity
11017;BME280;54687;50.800;6.772;2023-05-19T00:02:00;59045.50;;;-144.06;19.00
11017;BME280;54687;50.800;6.772;2023-05-19T00:04:30;59043.41;;;-144.06;19.21
11017;BME280;54687;50.800;6.772;2023-05-19T00:06:59;59045.50;;;-144.06;19.01
11017;BME280;54687;50.800;6.772;2023-05-19T00:09:26;59047.59;;;-144.06;19.19
11017;BME280;54687;50.800;6.772;2023-05-19T00:11:53;59039.22;;;-144.06;19.21
11017;BME280;54687;50.800;6.772;2023-05-19T00:14:21;59070.63;;;-144.06;18.99
11017;BME280;54687;50.800;6.772;2023-05-19T00:16:48;59110.44;;;-144.06;19.33
11017;BME280;54687;50.800;6.772;2023-05-19T00:19:14;59102.06;;;-144.06;19.19
11017;BME280;54687;50.800;6.772;2023-05-19T00:21:43;59118.81;;;-144.06;19.25
11017;BME280;54687;50.800;6.772;2023-05-19T00:24:11;59083.22;;;-144.06;19.24
11017;BME280;54687;50.800;6.772;2023-05-19T00:26:37;59102.06;;;-144.06;19.36
11017;BME280;54687;50.800;6.772;2023-05-19T00:29:04;59087.41;;;-144.06;19.36
11017;BME280;54687;50.800;6.772;2023-05-19T00:31:31;59106.25;;;-144.06;19.31
11017;BME280;54687;50.800;6.772;2023-05-19T00:33:58;59095.78;;;-144.06;19.32
11017;BME280;54687;50.800;6.772;2023-05-19T00:36:24;59139.78;;;-144.06;19.54
11017;BME280;54687;50.800;6.772;2023-05-19T00:38:51;59127.19;;;-144.06;19.31
11017;BME280;54687;50.800;6.772;2023-05-19T00:41:19;59139.78;;;-144.06;19.31
11017;BME280;54687;50.800;6.772;2023-05-19T00:43:47;59152.34;;;-144.06;19.60
11017;BME280;54687;50.800;6.772;2023-05-19T00:46:13;59171.19;;;-144.06;19.61
11017;BME280;54687;50.800;6.772;2023-05-19T00:48:41;59190.06;;;-144.06;19.69
11017;BME280;54687;50.800;6.772;2023-05-19T00:51:10;59223.56;;;-144.06;19.69
11017;BME280;54687;50.800;6.772;2023-05-19T00:53:41;59194.25;;;-144.06;19.68
11017;BME280;54687;50.800;6.772;2023-05-19T00:56:13;59204.72;;;-144.06;19.91
11017;BME280;54687;50.800;6.772;2023-05-19T00:58:41;59208.91;;;-144.06;19.73
11017;BME280;54687;50.800;6.772;2023-05-19T01:01:07;59223.56;;;-144.06;19.95
11017;BME280;54687;50.800;6.772;2023-05-19T01:03:42;59225.66;;;-144.06;19.81
11017;BME280;54687;50.800;6.772;2023-05-19T01:06:09;59231.97;;;-144.06;19.79
11017;BME280;54687;50.800;6.772;2023-05-19T01:08:37;59213.09;;;-144.06;19.71
11017;BME280;54687;50.800;6.772;2023-05-19T01:11:05;59215.19;;;-144.06;19.68
11017;BME280;54687;50.800;6.772;2023-05-19T01:13:32;59190.06;;;-144.06;19.58
11017;BME280;54687;50.800;6.772;2023-05-19T01:16:06;59217.28;;;-144.06;19.87
11017;BME280;54687;50.800;6.772;2023-05-19T01:18:45;59215.19;;;-144.06;19.94
11017;BME280;54687;50.800;6.772;2023-05-19T01:21:26;59227.75;;;-144.06;19.79
11017;BME280;54687;50.800;6.772;2023-05-19T01:24:12;59229.88;;;-144.06;19.89
11017;BME280;54687;50.800;6.772;2023-05-19T01:27:22;59255.00;;;-144.06;20.04
11017;BME280;54687;50.800;6.772;2023-05-19T01:30:11;59261.28;;;-144.06;20.09
11017;BME280;54687;50.800;6.772;2023-05-19T01:32:40;59255.00;;;-144.06;19.95
11017;BME280;54687;50.800;6.772;2023-05-19T01:35:08;59299.00;;;-144.06;19.80
11017;BME280;54687;50.800;6.772;2023-05-19T01:37:36;59257.09;;;-144.06;19.86
11017;BME280;54687;50.800;6.772;2023-05-19T01:40:05;59261.28;;;-144.06;19.95
11017;BME280;54687;50.800;6.772;2023-05-19T01:42:32;59240.34;;;-144.06;19.95
11017;BME280;54687;50.800;6.772;2023-05-19T01:45:02;59231.97;;;-144.06;19.99
11017;BME280;54687;50.800;6.772;2023-05-19T01:47:32;59271.75;;;-144.06;19.90
11017;BME280;54687;50.800;6.772;2023-05-19T01:50:02;59248.72;;;-144.06;19.93
11017;BME280;54687;50.800;6.772;2023-05-19T01:52:29;59265.47;;;-144.06;19.96
11017;BME280;54687;50.800;6.772;2023-05-19T01:54:56;59234.06;;;-144.06;19.87
11017;BME280;54687;50.800;6.772;2023-05-19T01:57:28;59273.84;;;-144.06;19.92
11017;BME280;54687;50.800;6.772;2023-05-19T02:00:03;59248.72;;;-144.06;19.95
11017;BME280;54687;50.800;6.772;2023-05-19T02:02:45;59265.47;;;-144.06;19.96
11017;BME280;54687;50.800;6.772;2023-05-19T02:05:21;59299.00;;;-144.06;19.98
11017;BME280;54687;50.800;6.772;2023-05-19T02:07:57;59282.25;;;-144.06;20.04
11017;BME280;54687;50.800;6.772;2023-05-19T02:10:28;59282.25;;;-144.06;19.98
11017;BME280;54687;50.800;6.772;2023-05-19T02:12:58;59284.34;;;-144.06;20.08
11017;BME280;54687;50.800;6.772;2023-05-19T02:15:29;59307.38;;;-144.06;20.07
11017;BME280;54687;50.800;6.772;2023-05-19T02:18:01;59299.00;;;-144.06;20.10
11017;BME280;54687;50.800;6.772;2023-05-19T02:20:29;59311.56;;;-144.06;20.04
11017;BME280;54687;50.800;6.772;2023-05-19T02:22:55;59301.09;;;-144.06;20.00
11017;BME280;54687;50.800;6.772;2023-05-19T02:25:22;59294.81;;;-144.06;20.04
11017;BME280;54687;50.800;6.772;2023-05-19T02:27:51;59332.53;;;-144.06;20.04
11017;BME280;54687;50.800;6.772;2023-05-19T02:30:18;59326.25;;;-144.06;20.09
11017;BME280;54687;50.800;6.772;2023-05-19T02:32:44;59345.09;;;-144.06;20.09
11017;BME280;54687;50.800;6.772;2023-05-19T02:35:12;59332.53;;;-144.06;20.05
11017;BME280;54687;50.800;6.772;2023-05-19T02:37:39;59336.72;;;-144.06;20.05
11017;BME280;54687;50.800;6.772;2023-05-19T02:40:07;59357.66;;;-144.06;20.05
11017;BME280;54687;50.800;6.772;2023-05-19T02:42:33;59378.63;;;-144.06;20.36
11017;BME280;54687;50.800;6.772;2023-05-19T02:45:00;59416.34;;;-144.06;20.26
11017;BME280;54687;50.800;6.772;2023-05-19T02:47:26;59414.25;;;-144.06;20.48
11017;BME280;54687;50.800;6.772;2023-05-19T02:49:53;59424.72;;;-144.06;20.70
11017;BME280;54687;50.800;6.772;2023-05-19T02:52:21;59462.44;;;-144.06;20.45
11017;BME280;54687;50.800;6.772;2023-05-19T02:54:47;59449.84;;;-144.06;20.67
11017;BME280;54687;50.800;6.772;2023-05-19T02:57:14;59433.09;;;-144.06;20.66
11017;BME280;54687;50.800;6.772;2023-05-19T02:59:41;59395.38;;;-144.06;20.63
11017;BME280;54687;50.800;6.772;2023-05-19T03:02:08;59428.91;;;-144.06;20.51
11017;BME280;54687;50.800;6.772;2023-05-19T03:04:34;59428.91;;;-144.06;20.60
11017;BME280;54687;50.800;6.772;2023-05-19T03:07:05;59424.72;;;-144.06;20.63
11017;BME280;54687;50.800;6.772;2023-05-19T03:09:35;59458.25;;;-144.06;20.34
11017;BME280;54687;50.800;6.772;2023-05-19T03:12:02;59443.56;;;-144.06;20.58
11017;BME280;54687;50.800;6.772;2023-05-19T03:14:31;59449.84;;;-144.06;20.85
11017;BME280;54687;50.800;6.772;2023-05-19T03:16:58;59454.03;;;-144.06;20.80
11017;BME280;54687;50.800;6.772;2023-05-19T03:19:25;59462.44;;;-144.06;20.70
11017;BME280;54687;50.800;6.772;2023-05-19T03:21:52;59460.31;;;-144.06;20.83
11017;BME280;54687;50.800;6.772;2023-05-19T03:24:20;59495.94;;;-144.06;20.55
11017;BME280;54687;50.800;6.772;2023-05-19T03:26:48;59454.03;;;-144.06;20.56
11017;BME280;54687;50.800;6.772;2023-05-19T03:29:15;59449.84;;;-144.06;20.89
11017;BME280;54687;50.800;6.772;2023-05-19T03:31:42;59454.03;;;-144.06;20.51
11017;BME280;54687;50.800;6.772;2023-05-19T03:34:09;59447.75;;;-144.06;20.50
11017;BME280;54687;50.800;6.772;2023-05-19T03:36:35;59460.31;;;-144.06;20.46
11017;BME280;54687;50.800;6.772;2023-05-19T03:39:04;59443.56;;;-144.06;20.49
11017;BME280;54687;50.800;6.772;2023-05-19T03:41:31;59407.94;;;-144.06;20.36
11017;BME280;54687;50.800;6.772;2023-05-19T03:43:59;59395.38;;;-144.06;20.44
11017;BME280;54687;50.800;6.772;2023-05-19T03:46:26;59470.81;;;-144.06;20.60
11017;BME280;54687;50.800;6.772;2023-05-19T03:48:53;59451.94;;;-144.06;20.61
11017;BME280;54687;50.800;6.772;2023-05-19T03:51:19;59443.56;;;-144.06;20.43
11017;BME280;54687;50.800;6.772;2023-05-19T03:53:46;59456.13;;;-144.06;20.31
11017;BME280;54687;50.800;6.772;2023-05-19T03:56:13;59439.38;;;-144.06;20.88
11017;BME280;54687;50.800;6.772;2023-05-19T03:58:42;59441.47;;;-144.06;20.62
11017;BME280;54687;50.800;6.772;2023-05-19T04:01:13;59449.84;;;-144.06;20.76
11017;BME280;54687;50.800;6.772;2023-05-19T04:03:39;59441.47;;;-144.06;20.65
11017;BME280;54687;50.800;6.772;2023-05-19T04:06:06;59458.25;;;-144.06;20.85
11017;BME280;54687;50.800;6.772;2023-05-19T04:08:33;59479.19;;;-144.06;20.62
11017;BME280;54687;50.800;6.772;2023-05-19T04:11:00;59470.81;;;-144.06;20.48
11017;BME280;54687;50.800;6.772;2023-05-19T04:13:27;59449.84;;;-144.06;20.68
11017;BME280;54687;50.800;6.772;2023-05-19T04:15:54;59445.66;;;-144.06;20.87
11017;BME280;54687;50.800;6.772;2023-05-19T04:18:22;59454.03;;;-144.06;20.76
11017;BME280;54687;50.800;6.772;2023-05-19T04:20:48;59472.91;;;-144.06;20.83
11017;BME280;54687;50.800;6.772;2023-05-19T04:23:15;59477.09;;;-144.06;20.85
11017;BME280;54687;50.800;6.772;2023-05-19T04:25:42;59447.75;;;-144.06;20.72
11017;BME280;54687;50.800;6.772;2023-05-19T04:28:08;59458.25;;;-144.06;20.80
11017;BME280;54687;50.800;6.772;2023-05-19T04:30:35;59439.38;;;-144.06;20.61
11017;BME280;54687;50.800;6.772;2023-05-19T04:33:02;59447.75;;;-144.06;20.34
11017;BME280;54687;50.800;6.772;2023-05-19T04:35:31;59405.84;;;-144.06;20.49
11017;BME280;54687;50.800;6.772;2023-05-19T04:37:57;59433.09;;;-144.06;20.31
11017;BME280;54687;50.800;6.772;2023-05-19T04:40:24;59424.72;;;-144.06;20.20
11017;BME280;54687;50.800;6.772;2023-05-19T04:42:50;59349.28;;;-144.06;20.18
11017;BME280;54687;50.800;6.772;2023-05-19T04:45:18;59353.47;;;-144.06;20.27
11017;BME280;54687;50.800;6.772;2023-05-19T04:47:45;59378.63;;;-144.06;20.06
11017;BME280;54687;50.800;6.772;2023-05-19T04:50:12;59347.19;;;-144.06;20.05
11017;BME280;54687;50.800;6.772;2023-05-19T04:52:40;59345.09;;;-144.06;20.26
11017;BME280;54687;50.800;6.772;2023-05-19T04:55:09;59324.16;;;-144.06;20.21
11017;BME280;54687;50.800;6.772;2023-05-19T04:57:37;59299.00;;;-144.06;20.02
11017;BME280;54687;50.800;6.772;2023-05-19T05:00:07;59317.84;;;-144.06;20.04
11017;BME280;54687;50.800;6.772;2023-05-19T05:02:39;59303.19;;;-144.06;20.00
11017;BME280;54687;50.800;6.772;2023-05-19T05:05:07;59282.25;;;-144.06;19.97
11017;BME280;54687;50.800;6.772;2023-05-19T05:07:34;59290.63;;;-144.06;20.07
11017;BME280;54687;50.800;6.772;2023-05-19T05:10:03;59294.81;;;-144.06;19.98
11017;BME280;54687;50.800;6.772;2023-05-19T05:12:30;59265.47;;;-144.06;19.94
11017;BME280;54687;50.800;6.772;2023-05-19T05:14:57;59294.81;;;-144.06;20.02
11017;BME280;54687;50.800;6.772;2023-05-19T05:17:24;59250.81;;;-144.06;19.88
11017;BME280;54687;50.800;6.772;2023-05-19T05:19:52;59294.81;;;-144.06;19.99
11017;BME280;54687;50.800;6.772;2023-05-19T05:22:20;59217.28;;;-144.06;19.77
11017;BME280;54687;50.800;6.772;2023-05-19T05:24:47;59238.25;;;-144.06;19.98
11017;BME280;54687;50.800;6.772;2023-05-19T05:27:16;59231.97;;;-144.06;19.83
11017;BME280;54687;50.800;6.772;2023-05-19T05:29:42;59215.19;;;-144.06;19.68
11017;BME280;54687;50.800;6.772;2023-05-19T05:32:09;59194.25;;;-144.06;19.95
11017;BME280;54687;50.800;6.772;2023-05-19T05:34:36;59204.72;;;-144.06;19.68
11017;BME280;54687;50.800;6.772;2023-05-19T05:37:04;59162.81;;;-144.06;19.52
11017;BME280;54687;50.800;6.772;2023-05-19T05:39:31;59139.78;;;-144.06;19.43
11017;BME280;54687;50.800;6.772;2023-05-19T05:41:57;59108.34;;;-144.06;19.26
11017;BME280;54687;50.800;6.772;2023-05-19T05:44:25;59104.16;;;-144.06;19.42
11017;BME280;54687;50.800;6.772;2023-05-19T05:46:52;59055.97;;;-144.06;19.27
11017;BME280;54687;50.800;6.772;2023-05-19T05:49:19;59045.50;;;-144.06;19.17
11017;BME280;54687;50.800;6.772;2023-05-19T05:51:46;59011.97;;;-144.06;19.04
11017;BME280;54687;50.800;6.772;2023-05-19T05:54:15;58967.97;;;-144.06;19.09
11017;BME280;54687;50.800;6.772;2023-05-19T05:56:43;58913.53;;;-144.06;18.70
11017;BME280;54687;50.800;6.772;2023-05-19T05:59:10;58789.91;;;-144.06;18.63
11017;BME280;54687;50.800;6.772;2023-05-19T06:01:38;58812.97;;;-144.06;18.40
11017;BME280;54687;50.800;6.772;2023-05-19T06:04:06;58875.81;;;-144.06;18.50
11017;BME280;54687;50.800;6.772;2023-05-19T06:06:32;58817.16;;;-144.06;18.65
11017;BME280;54687;50.800;6.772;2023-05-19T06:09:00;58762.69;;;-144.06;18.31
11017;BME280;54687;50.800;6.772;2023-05-19T06:11:27;58796.22;;;-144.06;18.38
11017;BME280;54687;50.800;6.772;2023-05-19T06:13:54;58781.53;;;-144.06;18.52
11017;BME280;54687;50.800;6.772;2023-05-19T06:16:20;58821.34;;;-144.06;18.60
11017;BME280;54687;50.800;6.772;2023-05-19T06:18:48;58842.28;;;-144.06;18.52
11017;BME280;54687;50.800;6.772;2023-05-19T06:21:15;58884.19;;;-144.06;18.56
11017;BME280;54687;50.800;6.772;2023-05-19T06:23:42;58886.28;;;-144.06;18.59
11017;BME280;54687;50.800;6.772;2023-05-19T06:26:09;58917.72;;;-144.06;18.96
11017;BME280;54687;50.800;6.772;2023-05-19T06:28:36;58924.00;;;-144.06;18.62
11017;BME280;54687;50.800;6.772;2023-05-19T06:31:03;58917.72;;;-144.06;18.91
11017;BME280;54687;50.800;6.772;2023-05-19T06:33:30;58942.84;;;-144.06;19.05
11017;BME280;54687;50.800;6.772;2023-05-19T06:35:58;58980.56;;;-144.06;19.05
11017;BME280;54687;50.800;6.772;2023-05-19T06:38:24;58942.84;;;-144.06;19.08
11017;BME280;54687;50.800;6.772;2023-05-19T06:40:51;58988.94;;;-144.06;18.92
11017;BME280;54687;50.800;6.772;2023-05-19T06:43:17;58988.94;;;-144.06;19.01
11017;BME280;54687;50.800;6.772;2023-05-19T06:45:44;59014.06;;;-144.06;18.96
11017;BME280;54687;50.800;6.772;2023-05-19T06:48:11;59007.78;;;-144.06;19.19
11017;BME280;54687;50.800;6.772;2023-05-19T06:50:37;59018.25;;;-144.06;19.21
11017;BME280;54687;50.800;6.772;2023-05-19T06:53:07;59051.78;;;-144.06;19.21
11017;BME280;54687;50.800;6.772;2023-05-19T06:55:33;59070.63;;;-144.06;19.28
11017;BME280;54687;50.800;6.772;2023-05-19T06:58:00;59079.03;;;-144.06;19.27
11017;BME280;54687;50.800;6.772;2023-05-19T07:00:27;59093.69;;;-144.06;19.44
11017;BME280;54687;50.800;6.772;2023-05-19T07:02:53;59072.72;;;-144.06;19.60
11017;BME280;54687;50.800;6.772;2023-05-19T07:05:20;59074.81;;;-144.06;19.47
11017;BME280;54687;50.800;6.772;2023-05-19T07:07:47;59064.34;;;-144.06;19.23
11017;BME280;54687;50.800;6.772;2023-05-19T07:10:15;59068.53;;;-144.06;19.27
11017;BME280;54687;50.800;6.772;2023-05-19T07:12:42;59079.03;;;-144.06;19.32
11017;BME280;54687;50.800;6.772;2023-05-19T07:15:09;59093.69;;;-144.06;19.53
11017;BME280;54687;50.800;6.772;2023-05-19T07:17:36;59060.16;;;-144.06;19.36
11017;BME280;54687;50.800;6.772;2023-05-19T07:20:03;59047.59;;;-144.06;19.44
11017;BME280;54687;50.800;6.772;2023-05-19T07:22:32;59039.22;;;-144.06;19.31
11017;BME280;54687;50.800;6.772;2023-05-19T07:24:59;59085.31;;;-144.06;19.43
11017;BME280;54687;50.800;6.772;2023-05-19T07:27:27;59070.63;;;-144.06;19.44
11017;BME280;54687;50.800;6.772;2023-05-19T07:29:54;59104.16;;;-144.06;19.37
11017;BME280;54687;50.800;6.772;2023-05-19T07:32:20;59097.88;;;-144.06;19.55
11017;BME280;54687;50.800;6.772;2023-05-19T07:34:48;59099.97;;;-144.06;19.46
11017;BME280;54687;50.800;6.772;2023-05-19T07:37:15;59104.16;;;-144.06;19.32
11017;BME280;54687;50.800;6.772;2023-05-19T07:39:42;59074.81;;;-144.06;19.21
11017;BME280;54687;50.800;6.772;2023-05-19T07:42:08;59072.72;;;-144.06;19.14
11017;BME280;54687;50.800;6.772;2023-05-19T07:44:38;59064.34;;;-144.06;19.20
11017;BME280;54687;50.800;6.772;2023-05-19T07:47:05;59076.94;;;-144.06;19.18
11017;BME280;54687;50.800;6.772;2023-05-19T07:49:31;59079.03;;;-144.06;19.09
11017;BME280;54687;50.800;6.772;2023-05-19T07:51:58;59085.31;;;-144.06;19.06
11017;BME280;54687;50.800;6.772;2023-05-19T07:54:25;59049.69;;;-144.06;19.19
11017;BME280;54687;50.800;6.772;2023-05-19T07:56:52;59051.78;;;-144.06;18.84
11017;BME280;54687;50.800;6.772;2023-05-19T07:59:19;59009.88;;;-144.06;18.86
11017;BME280;54687;50.800;6.772;2023-05-19T08:01:47;59030.84;;;-144.06;18.75
11017;BME280;54687;50.800;6.772;2023-05-19T08:04:14;59055.97;;;-144.06;18.87
11017;BME280;54687;50.800;6.772;2023-05-19T08:06:41;59066.44;;;-144.06;18.88
11017;BME280;54687;50.800;6.772;2023-05-19T08:09:09;59030.84;;;-144.06;18.92
11017;BME280;54687;50.800;6.772;2023-05-19T08:11:36;59028.75;;;-144.06;18.94
11017;BME280;54687;50.800;6.772;2023-05-19T08:14:03;59009.88;;;-144.06;18.90
11017;BME280;54687;50.800;6.772;2023-05-19T08:16:31;58993.13;;;-144.06;18.80
11017;BME280;54687;50.800;6.772;2023-05-19T08:18:59;59011.97;;;-144.06;18.84
11017;BME280;54687;50.800;6.772;2023-05-19T08:21:28;58995.22;;;-144.06;18.85
11017;BME280;54687;50.800;6.772;2023-05-19T08:23:55;58997.31;;;-144.06;18.72
11017;BME280;54687;50.800;6.772;2023-05-19T08:26:24;58970.09;;;-144.06;18.57
11017;BME280;54687;50.800;6.772;2023-05-19T08:28:50;59018.25;;;-144.06;18.65
11017;BME280;54687;50.800;6.772;2023-05-19T08:31:17;59011.97;;;-144.06;18.57
11017;BME280;54687;50.800;6.772;2023-05-19T08:33:44;58997.31;;;-144.06;18.72
11017;BME280;54687;50.800;6.772;2023-05-19T08:36:12;59014.06;;;-144.06;18.70
11017;BME280;54687;50.800;6.772;2023-05-19T08:38:38;59047.59;;;-144.06;18.77
11017;BME280;54687;50.800;6.772;2023-05-19T08:41:05;58988.94;;;-144.06;18.75
11017;BME280;54687;50.800;6.772;2023-05-19T08:43:32;59001.50;;;-144.06;18.65
11017;BME280;54687;50.800;6.772;2023-05-19T08:45:59;58974.28;;;-144.06;18.67
11017;BME280;54687;50.800;6.772;2023-05-19T08:48:28;59022.47;;;-144.06;18.40
11017;BME280;54687;50.800;6.772;2023-05-19T08:51:12;58993.13;;;-144.06;18.67
11017;BME280;54687;50.800;6.772;2023-05-19T08:53:47;58993.13;;;-144.06;18.42
11017;BME280;54687;50.800;6.772;2023-05-19T08:56:18;59005.69;;;-144.06;18.69
11017;BME280;54687;50.800;6.772;2023-05-19T08:58:48;59003.59;;;-144.06;18.69
11017;BME280;54687;50.800;6.772;2023-05-19T09:01:15;58986.84;;;-144.06;18.43
11017;BME280;54687;50.800;6.772;2023-05-19T09:03:43;58995.22;;;-144.06;18.65
11017;BME280;54687;50.800;6.772;2023-05-19T09:06:10;58917.72;;;-144.06;18.56
11017;BME280;54687;50.800;6.772;2023-05-19T09:08:38;58930.28;;;-144.06;18.40
11017;BME280;54687;50.800;6.772;2023-05-19T09:11:07;58892.56;;;-144.06;18.42
11017;BME280;54687;50.800;6.772;2023-05-19T09:13:34;58928.19;;;-144.06;18.47
11017;BME280;54687;50.800;6.772;2023-05-19T09:16:03;58892.56;;;-144.06;18.27
11017;BME280;54687;50.800;6.772;2023-05-19T09:18:30;58859.06;;;-144.06;18.35
11017;BME280;54687;50.800;6.772;2023-05-19T09:20:58;58838.09;;;-144.06;17.98
11017;BME280;54687;50.800;6.772;2023-05-19T09:23:26;58859.06;;;-144.06;17.97
11017;BME280;54687;50.800;6.772;2023-05-19T09:25:54;58808.78;;;-144.06;18.03
11017;BME280;54687;50.800;6.772;2023-05-19T09:28:26;58873.72;;;-144.06;17.99
11017;BME280;54687;50.800;6.772;2023-05-19T09:31:00;58882.09;;;-144.06;17.93
11017;BME280;54687;50.800;6.772;2023-05-19T09:33:27;58926.09;;;-144.06;17.98
11017;BME280;54687;50.800;6.772;2023-05-19T09:35:54;58896.75;;;-144.06;18.12
11017;BME280;54687;50.800;6.772;2023-05-19T09:38:22;58880.00;;;-144.06;18.18
11017;BME280;54687;50.800;6.772;2023-05-19T09:40:49;58942.84;;;-144.06;18.16
11017;BME280;54687;50.800;6.772;2023-05-19T09:43:16;58917.72;;;-144.06;18.16
11017;BME280;54687;50.800;6.772;2023-05-19T09:45:45;58940.75;;;-144.06;18.09
11017;BME280;54687;50.800;6.772;2023-05-19T09:48:13;58921.91;;;-144.06;18.14
11017;BME280;54687;50.800;6.772;2023-05-19T09:50:41;58890.47;;;-144.06;18.16
11017;BME280;54687;50.800;6.772;2023-05-19T09:53:08;58909.31;;;-144.06;17.98
11017;BME280;54687;50.800;6.772;2023-05-19T09:55:38;58926.09;;;-144.06;18.05
11017;BME280;54687;50.800;6.772;2023-05-19T09:58:06;58919.81;;;-144.06;18.15
11017;BME280;54687;50.800;6.772;2023-05-19T10:00:32;58909.31;;;-144.06;18.00
11017;BME280;54687;50.800;6.772;2023-05-19T10:03:02;58909.31;;;-144.06;17.88
11017;BME280;54687;50.800;6.772;2023-05-19T10:05:31;58934.47;;;-144.06;18.13
11017;BME280;54687;50.800;6.772;2023-05-19T10:07:59;58936.56;;;-144.06;18.04
11017;BME280;54687;50.800;6.772;2023-05-19T10:10:27;58900.94;;;-144.06;18.15
11017;BME280;54687;50.800;6.772;2023-05-19T10:12:55;58875.81;;;-144.06;17.78
11017;BME280;54687;50.800;6.772;2023-05-19T10:15:25;58882.09;;;-144.06;17.94
11017;BME280;54687;50.800;6.772;2023-05-19T10:17:51;58892.56;;;-144.06;17.66
11017;BME280;54687;50.800;6.772;2023-05-19T10:20:21;58880.00;;;-144.06;18.02
11017;BME280;54687;50.800;6.772;2023-05-19T10:22:48;58871.63;;;-144.06;17.93
11017;BME280;54687;50.800;6.772;2023-05-19T10:25:15;58806.69;;;-144.06;17.84
11017;BME280;54687;50.800;6.772;2023-05-19T10:27:50;58808.78;;;-144.06;17.86
11017;BME280;54687;50.800;6.772;2023-05-19T10:30:24;58777.34;;;-144.06;17.64
11017;BME280;54687;50.800;6.772;2023-05-19T10:32:52;58754.31;;;-144.06;17.67
11017;BME280;54687;50.800;6.772;2023-05-19T10:38:25;58745.94;;;-144.06;17.64
11017;BME280;54687;50.800;6.772;2023-05-19T10:41:01;58775.25;;;-144.06;17.70
11017;BME280;54687;50.800;6.772;2023-05-19T10:43:42;58737.56;;;-144.06;17.67
11017;BME280;54687;50.800;6.772;2023-05-19T10:46:10;58701.94;;;-144.06;17.43
11017;BME280;54687;50.800;6.772;2023-05-19T10:48:37;58708.22;;;-144.06;17.30
11017;BME280;54687;50.800;6.772;2023-05-19T10:51:05;58678.91;;;-144.06;17.53
11017;BME280;54687;50.800;6.772;2023-05-19T10:53:40;58729.16;;;-144.06;17.40
11017;BME280;54687;50.800;6.772;2023-05-19T10:56:26;58678.91;;;-144.06;17.43
11017;BME280;54687;50.800;6.772;2023-05-19T10:58:55;58613.97;;;-144.06;17.29
11017;BME280;54687;50.800;6.772;2023-05-19T11:01:28;58561.59;;;-144.06;17.10
11017;BME280;54687;50.800;6.772;2023-05-19T11:03:55;58525.97;;;-144.06;17.08
11017;BME280;54687;50.800;6.772;2023-05-19T11:06:27;58448.47;;;-144.06;16.71
11017;BME280;54687;50.800;6.772;2023-05-19T11:08:58;58574.16;;;-144.06;17.14
11017;BME280;54687;50.800;6.772;2023-05-19T11:11:42;58551.13;;;-144.06;17.16
11017;BME280;54687;50.800;6.772;2023-05-19T11:14:10;58538.56;;;-144.06;17.17
11017;BME280;54687;50.800;6.772;2023-05-19T11:16:38;58523.88;;;-144.06;17.24
11017;BME280;54687;50.800;6.772;2023-05-19T11:19:06;58507.13;;;-144.06;17.10
11017;BME280;54687;50.800;6.772;2023-05-19T11:21:46;58406.59;;;-144.06;16.65
11017;BME280;54687;50.800;6.772;2023-05-19T11:24:32;58389.84;;;-144.06;16.66
11017;BME280;54687;50.800;6.772;2023-05-19T11:27:16;58490.38;;;-144.06;16.56
11017;BME280;54687;50.800;6.772;2023-05-19T11:29:44;58440.09;;;-144.06;16.69
11017;BME280;54687;50.800;6.772;2023-05-19T11:32:12;58469.44;;;-144.06;16.69
11017;BME280;54687;50.800;6.772;2023-05-19T11:34:39;58408.69;;;-144.06;16.53
11017;BME280;54687;50.800;6.772;2023-05-19T11:37:07;58482.00;;;-144.06;16.68
11017;BME280;54687;50.800;6.772;2023-05-19T11:39:34;58490.38;;;-144.06;17.14
11017;BME280;54687;50.800;6.772;2023-05-19T11:42:01;58567.88;;;-144.06;16.88
11017;BME280;54687;50.800;6.772;2023-05-19T11:44:27;58586.72;;;-144.06;17.14
11017;BME280;54687;50.800;6.772;2023-05-19T11:46:55;58643.28;;;-144.06;17.18
11017;BME280;54687;50.800;6.772;2023-05-19T11:49:22;58670.53;;;-144.06;17.16
11017;BME280;54687;50.800;6.772;2023-05-19T11:51:49;58687.28;;;-144.06;17.44
11017;BME280;54687;50.800;6.772;2023-05-19T11:54:17;58683.09;;;-144.06;17.42
11017;BME280;54687;50.800;6.772;2023-05-19T11:56:45;58714.50;;;-144.06;17.34
11017;BME280;54687;50.800;6.772;2023-05-19T11:59:12;58743.84;;;-144.06;17.37
11017;BME280;54687;50.800;6.772;2023-05-19T12:01:39;58733.34;;;-144.06;17.45
11017;BME280;54687;50.800;6.772;2023-05-19T12:04:07;58745.94;;;-144.06;17.52
11017;BME280;54687;50.800;6.772;2023-05-19T12:06:34;58787.81;;;-144.06;17.45
11017;BME280;54687;50.800;6.772;2023-05-19T12:09:01;58812.97;;;-144.06;17.30
11017;BME280;54687;50.800;6.772;2023-05-19T12:11:31;58823.44;;;-144.06;17.37
11017;BME280;54687;50.800;6.772;2023-05-19T12:13:58;58854.84;;;-144.06;17.55
11017;BME280;54687;50.800;6.772;2023-05-19T12:16:31;58827.63;;;-144.06;17.80
11017;BME280;54687;50.800;6.772;2023-05-19T12:18:58;58783.63;;;-144.06;17.71
11017;BME280;54687;50.800;6.772;2023-05-19T12:21:25;58741.75;;;-144.06;17.14
11017;BME280;54687;50.800;6.772;2023-05-19T12:23:52;58865.34;;;-144.06;17.67
11017;BME280;54687;50.800;6.772;2023-05-19T12:26:20;58806.69;;;-144.06;17.52
11017;BME280;54687;50.800;6.772;2023-05-19T12:28:48;58808.78;;;-144.06;17.48
11017;BME280;54687;50.800;6.772;2023-05-19T12:31:17;58787.81;;;-144.06;17.62
11017;BME280;54687;50.800;6.772;2023-05-19T12:33:44;58764.78;;;-144.06;17.45
11017;BME280;54687;50.800;6.772;2023-05-19T12:36:11;58789.91;;;-144.06;17.40
11017;BME280;54687;50.800;6.772;2023-05-19T12:38:39;58781.53;;;-144.06;17.60
11017;BME280;54687;50.800;6.772;2023-05-19T12:41:06;58741.75;;;-144.06;17.34
11017;BME280;54687;50.800;6.772;2023-05-19T12:43:33;58727.06;;;-144.06;17.41
11017;BME280;54687;50.800;6.772;2023-05-19T12:46:09;58674.72;;;-144.06;17.20
11017;BME280;54687;50.800;6.772;2023-05-19T12:48:39;58657.94;;;-144.06;17.19
11017;BME280;54687;50.800;6.772;2023-05-19T12:51:05;58666.31;;;-144.06;17.13